sensor_id;sensor_type;location;lat;lon;timestamp;P1;durP1;ratioP1;P2;durP2;ratioP2
16735;SDS011;17990;49.548;9.730;2023-07-28T00:02:07;3.70;;;2.60;;
16735;SDS011;17990;49.548;9.730;2023-07-28T00:04:34;2.90;;;2.60;;
16735;SDS011;17990;49.548;9.730;2023-07-28T00:07:01;3.37;;;2.83;;
16735;SDS011;17990;49.548;9.730;2023-07-28T00:09:29;3.30;;;2.47;;
16735;SDS011;17990;49.548;9.730;2023-07-28T00:11:56;4.27;;;2.63;;
16735;SDS011;17990;49.548;9.730;2023-07-28T00:14:24;3.80;;;2.60;;
16735;SDS011;17990;49.548;9.730;2023-07-28T00:16:52;3.57;;;2.50;;
16735;SDS011;17990;49.548;9.730;2023-07-28T00:19:19;3.13;;;2.67;;
16735;SDS011;17990;49.548;9.730;2023-07-28T00:21:47;3.37;;;2.60;;
16735;SDS011;17990;49.548;9.730;2023-07-28T00:24:14;3.87;;;3.00;;
16735;SDS011;17990;49.548;9.730;2023-07-28T00:26:41;3.27;;;2.83;;
16735;SDS011;17990;49.548;9.730;2023-07-28T00:29:08;5.97;;;3.03;;
16735;SDS011;17990;49.548;9.730;2023-07-28T00:31:36;4.50;;;3.10;;
16735;SDS011;17990;49.548;9.730;2023-07-28T00:34:03;5.23;;;3.20;;
16735;SDS011;17990;49.548;9.730;2023-07-28T00:36:30;2.93;;;2.73;;
16735;SDS011;17990;49.548;9.730;2023-07-28T00:38:58;5.33;;;3.20;;
16735;SDS011;17990;49.548;9.730;2023-07-28T00:41:25;4.87;;;3.23;;
16735;SDS011;17990;49.548;9.730;2023-07-28T00:43:52;3.67;;;2.90;;
16735;SDS011;17990;49.548;9.730;2023-07-28T00:46:19;3.53;;;2.87;;
16735;SDS011;17990;49.548;9.730;2023-07-28T00:48:47;3.47;;;3.10;;
16735;SDS011;17990;49.548;9.730;2023-07-28T00:51:14;5.37;;;3.50;;
16735;SDS011;17990;49.548;9.730;2023-07-28T00:53:42;4.07;;;3.17;;
16735;SDS011;17990;49.548;9.730;2023-07-28T00:56:10;5.10;;;2.97;;
16735;SDS011;17990;49.548;9.730;2023-07-28T00:58:37;3.20;;;2.80;;
16735;SDS011;17990;49.548;9.730;2023-07-28T01:01:04;3.73;;;3.17;;
16735;SDS011;17990;49.548;9.730;2023-07-28T01:03:31;4.53;;;3.20;;
16735;SDS011;17990;49.548;9.730;2023-07-28T01:06:02;4.27;;;3.10;;
16735;SDS011;17990;49.548;9.730;2023-07-28T01:08:42;4.30;;;2.90;;
16735;SDS011;17990;49.548;9.730;2023-07-28T01:11:14;4.00;;;3.10;;
16735;SDS011;17990;49.548;9.730;2023-07-28T01:13:41;5.67;;;3.27;;
16735;SDS011;17990;49.548;9.730;2023-07-28T01:16:08;5.63;;;3.00;;
16735;SDS011;17990;49.548;9.730;2023-07-28T01:18:35;3.80;;;3.00;;
16735;SDS011;17990;49.548;9.730;2023-07-28T01:21:05;3.23;;;2.60;;
16735;SDS011;17990;49.548;9.730;2023-07-28T01:23:39;5.00;;;3.20;;
16735;SDS011;17990;49.548;9.730;2023-07-28T01:26:12;3.63;;;3.00;;
16735;SDS011;17990;49.548;9.730;2023-07-28T01:28:44;3.80;;;2.90;;
16735;SDS011;17990;49.548;9.730;2023-07-28T01:31:11;3.07;;;2.73;;
16735;SDS011;17990;49.548;9.730;2023-07-28T01:33:38;4.27;;;2.87;;
16735;SDS011;17990;49.548;9.730;2023-07-28T01:36:05;5.07;;;3.00;;
16735;SDS011;17990;49.548;9.730;2023-07-28T01:38:32;3.00;;;2.70;;
16735;SDS011;17990;49.548;9.730;2023-07-28T01:40:59;5.97;;;3.00;;
16735;SDS011;17990;49.548;9.730;2023-07-28T01:43:26;3.60;;;3.07;;
16735;SDS011;17990;49.548;9.730;2023-07-28T01:45:54;3.43;;;2.50;;
16735;SDS011;17990;49.548;9.730;2023-07-28T01:48:21;5.90;;;2.50;;
16735;SDS011;17990;49.548;9.730;2023-07-28T01:50:48;5.17;;;2.60;;
16735;SDS011;17990;49.548;9.730;2023-07-28T01:53:15;3.30;;;2.90;;
16735;SDS011;17990;49.548;9.730;2023-07-28T01:55:41;3.43;;;2.50;;
16735;SDS011;17990;49.548;9.730;2023-07-28T01:58:08;4.00;;;2.70;;
16735;SDS011;17990;49.548;9.730;2023-07-28T02:00:35;3.47;;;2.40;;
16735;SDS011;17990;49.548;9.730;2023-07-28T02:03:03;5.27;;;3.03;;
16735;SDS011;17990;49.548;9.730;2023-07-28T02:05:30;3.70;;;2.80;;
16735;SDS011;17990;49.548;9.730;2023-07-28T02:07:57;4.23;;;2.77;;
16735;SDS011;17990;49.548;9.730;2023-07-28T02:10:25;6.33;;;2.60;;
16735;SDS011;17990;49.548;9.730;2023-07-28T02:12:53;4.03;;;2.50;;
16735;SDS011;17990;49.548;9.730;2023-07-28T02:15:19;3.90;;;2.70;;
16735;SDS011;17990;49.548;9.730;2023-07-28T02:17:46;3.83;;;3.27;;
16735;SDS011;17990;49.548;9.730;2023-07-28T02:20:15;3.37;;;2.50;;
16735;SDS011;17990;49.548;9.730;2023-07-28T02:22:42;4.53;;;2.70;;
16735;SDS011;17990;49.548;9.730;2023-07-28T02:25:09;4.30;;;3.00;;
16735;SDS011;17990;49.548;9.730;2023-07-28T02:27:37;3.30;;;2.50;;
16735;SDS011;17990;49.548;9.730;2023-07-28T02:30:04;5.57;;;2.70;;
16735;SDS011;17990;49.548;9.730;2023-07-28T02:32:33;3.47;;;2.50;;
16735;SDS011;17990;49.548;9.730;2023-07-28T02:35:00;4.63;;;2.87;;
16735;SDS011;17990;49.548;9.730;2023-07-28T02:37:28;3.47;;;2.67;;
16735;SDS011;17990;49.548;9.730;2023-07-28T02:39:55;3.57;;;2.50;;
16735;SDS011;17990;49.548;9.730;2023-07-28T02:42:22;5.40;;;2.80;;
16735;SDS011;17990;49.548;9.730;2023-07-28T02:44:50;4.13;;;2.83;;
16735;SDS011;17990;49.548;9.730;2023-07-28T02:47:17;3.87;;;2.70;;
16735;SDS011;17990;49.548;9.730;2023-07-28T02:49:44;3.17;;;2.60;;
16735;SDS011;17990;49.548;9.730;2023-07-28T02:52:11;2.50;;;2.30;;
16735;SDS011;17990;49.548;9.730;2023-07-28T02:54:39;2.90;;;2.37;;
16735;SDS011;17990;49.548;9.730;2023-07-28T02:57:06;3.60;;;2.60;;
16735;SDS011;17990;49.548;9.730;2023-07-28T02:59:33;3.00;;;2.70;;
16735;SDS011;17990;49.548;9.730;2023-07-28T03:02:00;3.43;;;2.70;;
16735;SDS011;17990;49.548;9.730;2023-07-28T03:04:27;4.40;;;2.83;;
16735;SDS011;17990;49.548;9.730;2023-07-28T03:06:54;3.73;;;2.63;;
16735;SDS011;17990;49.548;9.730;2023-07-28T03:09:21;3.50;;;2.87;;
16735;SDS011;17990;49.548;9.730;2023-07-28T03:11:49;6.63;;;3.00;;
16735;SDS011;17990;49.548;9.730;2023-07-28T03:14:16;5.33;;;2.63;;
16735;SDS011;17990;49.548;9.730;2023-07-28T03:16:43;4.70;;;4.13;;
16735;SDS011;17990;49.548;9.730;2023-07-28T03:19:10;5.97;;;3.67;;
16735;SDS011;17990;49.548;9.730;2023-07-28T03:21:37;3.40;;;2.60;;
16735;SDS011;17990;49.548;9.730;2023-07-28T03:24:06;3.67;;;3.10;;
16735;SDS011;17990;49.548;9.730;2023-07-28T03:26:33;4.53;;;3.80;;
16735;SDS011;17990;49.548;9.730;2023-07-28T03:29:05;4.07;;;3.30;;
16735;SDS011;17990;49.548;9.730;2023-07-28T03:31:33;7.00;;;3.40;;
16735;SDS011;17990;49.548;9.730;2023-07-28T03:34:00;5.50;;;3.30;;
16735;SDS011;17990;49.548;9.730;2023-07-28T03:36:27;3.77;;;2.70;;
16735;SDS011;17990;49.548;9.730;2023-07-28T03:38:54;3.77;;;3.00;;
16735;SDS011;17990;49.548;9.730;2023-07-28T03:41:21;5.80;;;3.20;;
16735;SDS011;17990;49.548;9.730;2023-07-28T03:43:48;4.10;;;3.00;;
16735;SDS011;17990;49.548;9.730;2023-07-28T03:46:17;5.57;;;3.17;;
16735;SDS011;17990;49.548;9.730;2023-07-28T03:48:44;4.30;;;2.80;;
16735;SDS011;17990;49.548;9.730;2023-07-28T03:51:10;3.87;;;3.23;;
16735;SDS011;17990;49.548;9.730;2023-07-28T03:53:38;5.50;;;3.20;;
16735;SDS011;17990;49.548;9.730;2023-07-28T03:56:05;5.57;;;3.47;;
16735;SDS011;17990;49.548;9.730;2023-07-28T03:58:32;4.47;;;3.13;;
16735;SDS011;17990;49.548;9.730;2023-07-28T04:00:58;4.57;;;3.13;;
16735;SDS011;17990;49.548;9.730;2023-07-28T04:03:26;4.13;;;3.00;;
16735;SDS011;17990;49.548;9.730;2023-07-28T04:05:52;6.63;;;4.67;;
16735;SDS011;17990;49.548;9.730;2023-07-28T04:08:19;4.33;;;3.53;;
16735;SDS011;17990;49.548;9.730;2023-07-28T04:10:47;4.97;;;3.07;;
16735;SDS011;17990;49.548;9.730;2023-07-28T04:13:17;6.10;;;3.10;;
16735;SDS011;17990;49.548;9.730;2023-07-28T04:15:44;6.20;;;3.07;;
16735;SDS011;17990;49.548;9.730;2023-07-28T04:18:10;5.73;;;3.00;;
16735;SDS011;17990;49.548;9.730;2023-07-28T04:20:39;3.73;;;3.03;;
16735;SDS011;17990;49.548;9.730;2023-07-28T04:23:06;3.43;;;2.93;;
16735;SDS011;17990;49.548;9.730;2023-07-28T04:25:33;5.07;;;2.80;;
16735;SDS011;17990;49.548;9.730;2023-07-28T04:27:59;3.13;;;2.80;;
16735;SDS011;17990;49.548;9.730;2023-07-28T04:30:26;3.43;;;2.73;;
16735;SDS011;17990;49.548;9.730;2023-07-28T04:32:53;2.70;;;2.50;;
16735;SDS011;17990;49.548;9.730;2023-07-28T04:35:20;3.23;;;2.70;;
16735;SDS011;17990;49.548;9.730;2023-07-28T04:37:48;3.67;;;2.97;;
16735;SDS011;17990;49.548;9.730;2023-07-28T04:40:15;5.33;;;3.30;;
16735;SDS011;17990;49.548;9.730;2023-07-28T04:42:42;3.90;;;3.17;;
16735;SDS011;17990;49.548;9.730;2023-07-28T04:45:10;3.90;;;3.47;;
16735;SDS011;17990;49.548;9.730;2023-07-28T04:47:37;3.83;;;3.53;;
16735;SDS011;17990;49.548;9.730;2023-07-28T04:50:04;4.00;;;3.60;;
16735;SDS011;17990;49.548;9.730;2023-07-28T04:52:31;7.87;;;4.60;;
16735;SDS011;17990;49.548;9.730;2023-07-28T04:55:00;6.93;;;3.40;;
16735;SDS011;17990;49.548;9.730;2023-07-28T04:57:27;4.30;;;3.00;;
16735;SDS011;17990;49.548;9.730;2023-07-28T04:59:54;4.30;;;3.33;;
16735;SDS011;17990;49.548;9.730;2023-07-28T05:02:20;6.00;;;3.33;;
16735;SDS011;17990;49.548;9.730;2023-07-28T05:04:47;5.63;;;3.37;;
16735;SDS011;17990;49.548;9.730;2023-07-28T05:07:14;4.90;;;3.60;;
16735;SDS011;17990;49.548;9.730;2023-07-28T05:09:41;7.20;;;2.97;;
16735;SDS011;17990;49.548;9.730;2023-07-28T05:12:11;5.23;;;3.53;;
16735;SDS011;17990;49.548;9.730;2023-07-28T05:14:38;4.70;;;3.63;;
16735;SDS011;17990;49.548;9.730;2023-07-28T05:17:05;4.10;;;3.67;;
16735;SDS011;17990;49.548;9.730;2023-07-28T05:19:32;3.50;;;2.90;;
16735;SDS011;17990;49.548;9.730;2023-07-28T05:21:58;5.33;;;3.57;;
16735;SDS011;17990;49.548;9.730;2023-07-28T05:24:25;3.60;;;3.03;;
16735;SDS011;17990;49.548;9.730;2023-07-28T05:26:52;3.43;;;3.10;;
16735;SDS011;17990;49.548;9.730;2023-07-28T05:29:21;3.63;;;2.60;;
16735;SDS011;17990;49.548;9.730;2023-07-28T05:31:47;3.70;;;2.87;;
16735;SDS011;17990;49.548;9.730;2023-07-28T05:34:14;4.20;;;2.90;;
16735;SDS011;17990;49.548;9.730;2023-07-28T05:36:42;6.60;;;2.80;;
16735;SDS011;17990;49.548;9.730;2023-07-28T05:39:09;3.43;;;2.90;;
16735;SDS011;17990;49.548;9.730;2023-07-28T05:41:36;2.37;;;2.17;;
16735;SDS011;17990;49.548;9.730;2023-07-28T05:44:04;5.23;;;2.70;;
16735;SDS011;17990;49.548;9.730;2023-07-28T05:46:32;3.53;;;2.00;;
16735;SDS011;17990;49.548;9.730;2023-07-28T05:49:00;3.70;;;2.03;;
16735;SDS011;17990;49.548;9.730;2023-07-28T05:51:26;2.87;;;2.30;;
16735;SDS011;17990;49.548;9.730;2023-07-28T05:53:53;3.63;;;2.30;;
16735;SDS011;17990;49.548;9.730;2023-07-28T05:56:20;3.23;;;1.80;;
16735;SDS011;17990;49.548;9.730;2023-07-28T05:58:48;2.73;;;2.07;;
16735;SDS011;17990;49.548;9.730;2023-07-28T06:01:16;2.77;;;2.00;;
16735;SDS011;17990;49.548;9.730;2023-07-28T06:03:44;2.13;;;1.93;;
16735;SDS011;17990;49.548;9.730;2023-07-28T06:06:12;2.10;;;1.90;;
16735;SDS011;17990;49.548;9.730;2023-07-28T06:08:39;5.43;;;1.70;;
16735;SDS011;17990;49.548;9.730;2023-07-28T06:11:06;3.17;;;1.93;;
16735;SDS011;17990;49.548;9.730;2023-07-28T06:13:33;1.60;;;1.40;;
16735;SDS011;17990;49.548;9.730;2023-07-28T06:16:00;3.07;;;1.90;;
16735;SDS011;17990;49.548;9.730;2023-07-28T06:18:27;3.37;;;2.03;;
16735;SDS011;17990;49.548;9.730;2023-07-28T06:20:55;1.80;;;1.40;;
16735;SDS011;17990;49.548;9.730;2023-07-28T06:23:22;4.00;;;1.80;;
16735;SDS011;17990;49.548;9.730;2023-07-28T06:25:49;3.00;;;1.73;;
16735;SDS011;17990;49.548;9.730;2023-07-28T06:28:17;3.57;;;1.87;;
16735;SDS011;17990;49.548;9.730;2023-07-28T06:30:44;1.80;;;1.70;;
16735;SDS011;17990;49.548;9.730;2023-07-28T06:33:10;2.53;;;1.60;;
16735;SDS011;17990;49.548;9.730;2023-07-28T06:35:37;2.13;;;1.50;;
16735;SDS011;17990;49.548;9.730;2023-07-28T06:38:06;2.60;;;1.90;;
16735;SDS011;17990;49.548;9.730;2023-07-28T06:40:33;2.83;;;2.00;;
16735;SDS011;17990;49.548;9.730;2023-07-28T06:42:59;2.03;;;1.83;;
16735;SDS011;17990;49.548;9.730;2023-07-28T06:45:26;3.03;;;1.70;;
16735;SDS011;17990;49.548;9.730;2023-07-28T06:47:54;2.30;;;1.70;;
16735;SDS011;17990;49.548;9.730;2023-07-28T06:50:21;2.43;;;1.60;;
16735;SDS011;17990;49.548;9.730;2023-07-28T06:52:48;4.53;;;1.90;;
16735;SDS011;17990;49.548;9.730;2023-07-28T06:55:16;2.60;;;1.27;;
16735;SDS011;17990;49.548;9.730;2023-07-28T06:57:44;1.63;;;1.20;;
16735;SDS011;17990;49.548;9.730;2023-07-28T07:00:11;1.65;;;1.30;;
16735;SDS011;17990;49.548;9.730;2023-07-28T07:02:39;1.60;;;1.30;;
16735;SDS011;17990;49.548;9.730;2023-07-28T07:05:06;2.17;;;1.20;;
16735;SDS011;17990;49.548;9.730;2023-07-28T07:07:34;2.57;;;1.10;;
16735;SDS011;17990;49.548;9.730;2023-07-28T07:10:01;1.23;;;1.13;;
16735;SDS011;17990;49.548;9.730;2023-07-28T07:12:30;2.97;;;1.00;;
16735;SDS011;17990;49.548;9.730;2023-07-28T07:14:57;1.50;;;1.40;;
16735;SDS011;17990;49.548;9.730;2023-07-28T07:17:24;1.55;;;1.10;;
16735;SDS011;17990;49.548;9.730;2023-07-28T07:19:51;1.25;;;1.02;;
16735;SDS011;17990;49.548;9.730;2023-07-28T07:22:18;0.90;;;0.90;;
16735;SDS011;17990;49.548;9.730;2023-07-28T07:24:45;2.08;;;1.17;;
16735;SDS011;17990;49.548;9.730;2023-07-28T07:27:11;1.05;;;0.90;;
16735;SDS011;17990;49.548;9.730;2023-07-28T07:29:40;1.45;;;0.90;;
16735;SDS011;17990;49.548;9.730;2023-07-28T07:32:07;2.13;;;0.98;;
16735;SDS011;17990;49.548;9.730;2023-07-28T07:34:36;1.42;;;1.33;;
16735;SDS011;17990;49.548;9.730;2023-07-28T07:37:03;1.38;;;0.93;;
16735;SDS011;17990;49.548;9.730;2023-07-28T07:39:30;0.98;;;0.80;;
16735;SDS011;17990;49.548;9.730;2023-07-28T07:41:59;1.02;;;0.80;;
16735;SDS011;17990;49.548;9.730;2023-07-28T07:44:26;1.88;;;1.25;;
16735;SDS011;17990;49.548;9.730;2023-07-28T07:46:54;0.85;;;0.70;;
16735;SDS011;17990;49.548;9.730;2023-07-28T07:49:21;1.10;;;0.95;;
16735;SDS011;17990;49.548;9.730;2023-07-28T07:51:48;0.80;;;0.70;;
16735;SDS011;17990;49.548;9.730;2023-07-28T07:54:15;2.08;;;0.90;;
16735;SDS011;17990;49.548;9.730;2023-07-28T07:56:43;2.05;;;1.23;;
16735;SDS011;17990;49.548;9.730;2023-07-28T07:59:11;0.85;;;0.75;;
16735;SDS011;17990;49.548;9.730;2023-07-28T08:01:38;1.00;;;0.90;;
16735;SDS011;17990;49.548;9.730;2023-07-28T08:04:06;1.25;;;0.90;;
16735;SDS011;17990;49.548;9.730;2023-07-28T08:06:34;0.80;;;0.77;;
16735;SDS011;17990;49.548;9.730;2023-07-28T08:09:00;0.65;;;0.60;;
16735;SDS011;17990;49.548;9.730;2023-07-28T08:11:27;1.42;;;0.70;;
16735;SDS011;17990;49.548;9.730;2023-07-28T08:13:54;1.52;;;0.90;;
16735;SDS011;17990;49.548;9.730;2023-07-28T08:16:21;1.17;;;0.80;;
16735;SDS011;17990;49.548;9.730;2023-07-28T08:18:48;1.58;;;0.75;;
16735;SDS011;17990;49.548;9.730;2023-07-28T08:21:16;2.25;;;1.10;;
16735;SDS011;17990;49.548;9.730;2023-07-28T08:23:43;0.93;;;0.65;;
16735;SDS011;17990;49.548;9.730;2023-07-28T08:26:10;0.80;;;0.80;;
16735;SDS011;17990;49.548;9.730;2023-07-28T08:28:37;2.65;;;0.70;;
16735;SDS011;17990;49.548;9.730;2023-07-28T08:31:04;1.73;;;0.73;;
16735;SDS011;17990;49.548;9.730;2023-07-28T08:33:31;4.72;;;0.93;;
16735;SDS011;17990;49.548;9.730;2023-07-28T08:35:58;2.40;;;0.73;;
16735;SDS011;17990;49.548;9.730;2023-07-28T08:38:26;4.85;;;1.20;;
16735;SDS011;17990;49.548;9.730;2023-07-28T08:40:53;5.55;;;2.47;;
16735;SDS011;17990;49.548;9.730;2023-07-28T08:43:20;3.92;;;2.17;;
16735;SDS011;17990;49.548;9.730;2023-07-28T08:45:47;1.13;;;1.02;;
16735;SDS011;17990;49.548;9.730;2023-07-28T08:48:14;2.00;;;1.48;;
16735;SDS011;17990;49.548;9.730;2023-07-28T08:50:40;4.05;;;1.17;;
16735;SDS011;17990;49.548;9.730;2023-07-28T08:53:07;0.95;;;0.88;;
16735;SDS011;17990;49.548;9.730;2023-07-28T08:55:36;4.65;;;1.58;;
16735;SDS011;17990;49.548;9.730;2023-07-28T08:58:15;2.25;;;1.35;;
16735;SDS011;17990;49.548;9.730;2023-07-28T09:00:44;5.72;;;1.30;;
16735;SDS011;17990;49.548;9.730;2023-07-28T09:03:14;5.65;;;1.00;;
16735;SDS011;17990;49.548;9.730;2023-07-28T09:05:41;2.08;;;1.00;;
16735;SDS011;17990;49.548;9.730;2023-07-28T09:08:09;0.95;;;0.85;;
16735;SDS011;17990;49.548;9.730;2023-07-28T09:10:44;4.10;;;0.80;;
16735;SDS011;17990;49.548;9.730;2023-07-28T09:13:14;0.60;;;0.60;;
16735;SDS011;17990;49.548;9.730;2023-07-28T09:15:43;1.20;;;0.90;;
16735;SDS011;17990;49.548;9.730;2023-07-28T09:18:11;1.60;;;0.75;;
16735;SDS011;17990;49.548;9.730;2023-07-28T09:20:40;2.20;;;0.80;;
16735;SDS011;17990;49.548;9.730;2023-07-28T09:23:09;0.82;;;0.70;;
16735;SDS011;17990;49.548;9.730;2023-07-28T09:25:41;1.27;;;0.80;;
16735;SDS011;17990;49.548;9.730;2023-07-28T09:28:09;1.55;;;0.70;;
16735;SDS011;17990;49.548;9.730;2023-07-28T09:30:44;0.68;;;0.60;;
16735;SDS011;17990;49.548;9.730;2023-07-28T09:33:13;2.97;;;0.77;;
16735;SDS011;17990;49.548;9.730;2023-07-28T09:35:49;1.35;;;0.90;;
16735;SDS011;17990;49.548;9.730;2023-07-28T09:38:16;1.88;;;0.70;;
16735;SDS011;17990;49.548;9.730;2023-07-28T09:40:45;3.55;;;1.00;;
16735;SDS011;17990;49.548;9.730;2023-07-28T09:43:14;1.02;;;0.70;;
16735;SDS011;17990;49.548;9.730;2023-07-28T09:45:42;2.97;;;0.90;;
16735;SDS011;17990;49.548;9.730;2023-07-28T09:48:10;1.05;;;0.80;;
16735;SDS011;17990;49.548;9.730;2023-07-28T09:50:38;0.95;;;0.75;;
16735;SDS011;17990;49.548;9.730;2023-07-28T09:53:07;1.35;;;1.17;;
16735;SDS011;17990;49.548;9.730;2023-07-28T09:55:37;0.93;;;0.77;;
16735;SDS011;17990;49.548;9.730;2023-07-28T09:58:07;4.10;;;1.00;;
16735;SDS011;17990;49.548;9.730;2023-07-28T10:00:38;2.00;;;0.80;;
16735;SDS011;17990;49.548;9.730;2023-07-28T10:03:06;1.23;;;0.90;;
16735;SDS011;17990;49.548;9.730;2023-07-28T10:05:35;1.42;;;1.00;;
16735;SDS011;17990;49.548;9.730;2023-07-28T10:08:02;1.77;;;0.90;;
16735;SDS011;17990;49.548;9.730;2023-07-28T10:10:30;0.77;;;0.77;;
16735;SDS011;17990;49.548;9.730;2023-07-28T10:12:58;1.10;;;0.80;;
16735;SDS011;17990;49.548;9.730;2023-07-28T10:15:27;0.73;;;0.60;;
16735;SDS011;17990;49.548;9.730;2023-07-28T10:17:57;0.70;;;0.70;;
16735;SDS011;17990;49.548;9.730;2023-07-28T10:20:29;2.53;;;0.90;;
16735;SDS011;17990;49.548;9.730;2023-07-28T10:23:03;1.27;;;0.80;;
16735;SDS011;17990;49.548;9.730;2023-07-28T10:25:32;2.50;;;1.60;;
16735;SDS011;17990;49.548;9.730;2023-07-28T10:28:01;2.05;;;0.90;;
16735;SDS011;17990;49.548;9.730;2023-07-28T10:30:32;1.55;;;0.70;;
16735;SDS011;17990;49.548;9.730;2023-07-28T10:33:06;1.02;;;0.90;;
16735;SDS011;17990;49.548;9.730;2023-07-28T10:35:52;1.35;;;0.90;;
16735;SDS011;17990;49.548;9.730;2023-07-28T10:38:29;1.52;;;0.70;;
16735;SDS011;17990;49.548;9.730;2023-07-28T10:41:05;3.15;;;0.60;;
16735;SDS011;17990;49.548;9.730;2023-07-28T10:43:35;2.83;;;1.20;;
16735;SDS011;17990;49.548;9.730;2023-07-28T10:46:03;1.58;;;0.95;;
16735;SDS011;17990;49.548;9.730;2023-07-28T10:48:33;1.45;;;0.77;;
16735;SDS011;17990;49.548;9.730;2023-07-28T10:51:02;0.93;;;0.60;;
16735;SDS011;17990;49.548;9.730;2023-07-28T10:53:31;2.35;;;0.70;;
16735;SDS011;17990;49.548;9.730;2023-07-28T10:56:00;1.40;;;0.70;;
16735;SDS011;17990;49.548;9.730;2023-07-28T10:58:29;1.08;;;0.73;;
16735;SDS011;17990;49.548;9.730;2023-07-28T11:00:57;0.85;;;0.70;;
16735;SDS011;17990;49.548;9.730;2023-07-28T11:03:24;2.08;;;0.80;;
16735;SDS011;17990;49.548;9.730;2023-07-28T11:05:53;2.88;;;0.70;;
16735;SDS011;17990;49.548;9.730;2023-07-28T11:08:21;1.52;;;0.70;;
16735;SDS011;17990;49.548;9.730;2023-07-28T11:10:49;2.28;;;0.70;;
16735;SDS011;17990;49.548;9.730;2023-07-28T11:13:16;2.95;;;0.70;;
16735;SDS011;17990;49.548;9.730;2023-07-28T11:15:43;0.98;;;0.70;;
16735;SDS011;17990;49.548;9.730;2023-07-28T11:18:10;1.92;;;0.70;;
16735;SDS011;17990;49.548;9.730;2023-07-28T11:20:37;3.33;;;0.90;;
16735;SDS011;17990;49.548;9.730;2023-07-28T11:23:05;1.95;;;1.02;;
16735;SDS011;17990;49.548;9.730;2023-07-28T11:25:33;1.83;;;0.65;;
16735;SDS011;17990;49.548;9.730;2023-07-28T11:28:01;0.93;;;0.75;;
16735;SDS011;17990;49.548;9.730;2023-07-28T11:30:30;1.05;;;0.80;;
16735;SDS011;17990;49.548;9.730;2023-07-28T11:32:58;1.20;;;0.68;;
16735;SDS011;17990;49.548;9.730;2023-07-28T11:35:25;0.88;;;0.80;;
16735;SDS011;17990;49.548;9.730;2023-07-28T11:37:53;1.00;;;0.80;;
16735;SDS011;17990;49.548;9.730;2023-07-28T11:40:22;0.70;;;0.70;;
16735;SDS011;17990;49.548;9.730;2023-07-28T11:42:51;2.03;;;0.77;;
16735;SDS011;17990;49.548;9.730;2023-07-28T11:45:21;1.20;;;0.90;;
16735;SDS011;17990;49.548;9.730;2023-07-28T11:47:55;0.82;;;0.70;;
16735;SDS011;17990;49.548;9.730;2023-07-28T11:50:24;0.68;;;0.60;;
16735;SDS011;17990;49.548;9.730;2023-07-28T11:52:53;2.83;;;1.10;;
16735;SDS011;17990;49.548;9.730;2023-07-28T11:55:22;0.95;;;0.70;;
16735;SDS011;17990;49.548;9.730;2023-07-28T11:57:49;0.98;;;0.90;;
16735;SDS011;17990;49.548;9.730;2023-07-28T12:00:18;3.20;;;0.90;;
16735;SDS011;17990;49.548;9.730;2023-07-28T12:03:00;1.08;;;0.90;;
16735;SDS011;17990;49.548;9.730;2023-07-28T12:05:29;1.30;;;0.73;;
16735;SDS011;17990;49.548;9.730;2023-07-28T12:07:57;2.17;;;0.98;;
16735;SDS011;17990;49.548;9.730;2023-07-28T12:10:25;1.88;;;1.40;;
16735;SDS011;17990;49.548;9.730;2023-07-28T12:12:52;1.35;;;0.90;;
16735;SDS011;17990;49.548;9.730;2023-07-28T12:15:20;2.35;;;0.95;;
16735;SDS011;17990;49.548;9.730;2023-07-28T12:18:05;1.63;;;1.00;;
16735;SDS011;17990;49.548;9.730;2023-07-28T12:20:36;0.70;;;0.70;;
16735;SDS011;17990;49.548;9.730;2023-07-28T12:23:04;2.00;;;1.10;;
16735;SDS011;17990;49.548;9.730;2023-07-28T12:25:33;6.68;;;1.05;;
16735;SDS011;17990;49.548;9.730;2023-07-28T12:28:01;1.45;;;1.00;;
16735;SDS011;17990;49.548;9.730;2023-07-28T12:30:29;0.98;;;0.88;;
16735;SDS011;17990;49.548;9.730;2023-07-28T12:32:55;1.40;;;0.90;;
16735;SDS011;17990;49.548;9.730;2023-07-28T12:35:23;1.40;;;1.20;;
16735;SDS011;17990;49.548;9.730;2023-07-28T12:37:52;1.23;;;0.80;;
16735;SDS011;17990;49.548;9.730;2023-07-28T12:40:18;0.95;;;0.90;;
16735;SDS011;17990;49.548;9.730;2023-07-28T12:42:47;0.90;;;0.70;;
16735;SDS011;17990;49.548;9.730;2023-07-28T12:45:14;2.22;;;0.90;;
16735;SDS011;17990;49.548;9.730;2023-07-28T12:47:41;1.80;;;0.90;;
16735;SDS011;17990;49.548;9.730;2023-07-28T12:50:09;0.95;;;0.90;;
16735;SDS011;17990;49.548;9.730;2023-07-28T12:52:36;0.90;;;0.77;;
16735;SDS011;17990;49.548;9.730;2023-07-28T12:55:03;3.05;;;0.70;;
16735;SDS011;17990;49.548;9.730;2023-07-28T12:57:31;1.70;;;1.08;;
16735;SDS011;17990;49.548;9.730;2023-07-28T12:59:59;2.50;;;1.30;;
16735;SDS011;17990;49.548;9.730;2023-07-28T13:02:31;1.08;;;0.90;;
16735;SDS011;17990;49.548;9.730;2023-07-28T13:04:58;2.20;;;1.10;;
16735;SDS011;17990;49.548;9.730;2023-07-28T13:07:25;1.48;;;0.88;;
16735;SDS011;17990;49.548;9.730;2023-07-28T13:09:52;1.20;;;1.10;;
16735;SDS011;17990;49.548;9.730;2023-07-28T13:12:19;3.97;;;1.15;;
16735;SDS011;17990;49.548;9.730;2023-07-28T13:14:46;2.20;;;1.00;;
16735;SDS011;17990;49.548;9.730;2023-07-28T13:17:14;1.20;;;1.10;;
16735;SDS011;17990;49.548;9.730;2023-07-28T13:19:41;1.00;;;0.90;;
16735;SDS011;17990;49.548;9.730;2023-07-28T13:22:08;1.65;;;0.80;;
16735;SDS011;17990;49.548;9.730;2023-07-28T13:24:35;0.95;;;0.80;;
16735;SDS011;17990;49.548;9.730;2023-07-28T13:27:03;2.03;;;1.00;;
16735;SDS011;17990;49.548;9.730;2023-07-28T13:29:31;1.20;;;0.90;;
16735;SDS011;17990;49.548;9.730;2023-07-28T13:31:58;3.33;;;1.17;;
16735;SDS011;17990;49.548;9.730;2023-07-28T13:34:27;1.45;;;0.93;;
16735;SDS011;17990;49.548;9.730;2023-07-28T13:36:55;1.20;;;1.02;;
16735;SDS011;17990;49.548;9.730;2023-07-28T13:39:22;1.48;;;0.95;;
16735;SDS011;17990;49.548;9.730;2023-07-28T13:41:49;1.90;;;0.95;;
16735;SDS011;17990;49.548;9.730;2023-07-28T13:44:16;1.48;;;1.00;;
16735;SDS011;17990;49.548;9.730;2023-07-28T13:46:43;1.05;;;0.85;;
16735;SDS011;17990;49.548;9.730;2023-07-28T13:49:10;1.58;;;1.02;;
16735;SDS011;17990;49.548;9.730;2023-07-28T13:51:38;0.80;;;0.80;;
16735;SDS011;17990;49.548;9.730;2023-07-28T13:54:05;6.80;;;1.13;;
16735;SDS011;17990;49.548;9.730;2023-07-28T13:56:32;1.67;;;0.75;;
16735;SDS011;17990;49.548;9.730;2023-07-28T13:58:59;2.47;;;1.00;;
16735;SDS011;17990;49.548;9.730;2023-07-28T14:01:26;1.58;;;0.88;;
16735;SDS011;17990;49.548;9.730;2023-07-28T14:03:53;1.45;;;0.70;;
16735;SDS011;17990;49.548;9.730;2023-07-28T14:06:20;0.88;;;0.75;;
16735;SDS011;17990;49.548;9.730;2023-07-28T14:08:48;0.90;;;0.60;;
16735;SDS011;17990;49.548;9.730;2023-07-28T14:11:15;1.17;;;0.73;;
16735;SDS011;17990;49.548;9.730;2023-07-28T14:13:42;0.85;;;0.68;;
16735;SDS011;17990;49.548;9.730;2023-07-28T14:16:09;0.75;;;0.55;;
16735;SDS011;17990;49.548;9.730;2023-07-28T14:18:36;1.25;;;0.77;;
16735;SDS011;17990;49.548;9.730;2023-07-28T14:21:02;1.75;;;0.77;;
16735;SDS011;17990;49.548;9.730;2023-07-28T14:23:30;0.88;;;0.55;;
16735;SDS011;17990;49.548;9.730;2023-07-28T14:25:58;0.93;;;0.60;;
16735;SDS011;17990;49.548;9.730;2023-07-28T14:28:25;2.20;;;0.75;;
16735;SDS011;17990;49.548;9.730;2023-07-28T14:30:52;0.80;;;0.70;;
16735;SDS011;17990;49.548;9.730;2023-07-28T14:33:19;1.48;;;0.70;;
16735;SDS011;17990;49.548;9.730;2023-07-28T14:35:46;0.82;;;0.80;;
16735;SDS011;17990;49.548;9.730;2023-07-28T14:38:15;2.85;;;0.73;;
16735;SDS011;17990;49.548;9.730;2023-07-28T14:40:42;1.63;;;1.00;;
16735;SDS011;17990;49.548;9.730;2023-07-28T14:43:15;1.40;;;1.00;;
16735;SDS011;17990;49.548;9.730;2023-07-28T14:45:42;2.58;;;1.00;;
16735;SDS011;17990;49.548;9.730;2023-07-28T14:48:09;4.10;;;1.20;;
16735;SDS011;17990;49.548;9.730;2023-07-28T14:50:36;1.58;;;1.00;;
16735;SDS011;17990;49.548;9.730;2023-07-28T14:53:09;1.45;;;1.00;;